createdAt,value
2024-05-09T00:00:53.402Z,8.57
2024-05-09T00:03:23.417Z,8.52
2024-05-09T00:05:53.732Z,8.35
2024-05-09T00:08:25.104Z,8.38
2024-05-09T00:10:55.617Z,8.28
2024-05-09T00:13:26.154Z,8.72
2024-05-09T00:15:58.561Z,8.29
2024-05-09T00:18:28.469Z,8.01
2024-05-09T00:20:59.254Z,7.84
2024-05-09T00:23:30.204Z,7.91
2024-05-09T00:26:01.727Z,7.67
2024-05-09T00:28:33.589Z,8.23
2024-05-09T00:31:06.803Z,7.83
2024-05-09T00:33:38.228Z,8.10
2024-05-09T00:36:11.434Z,8.33
2024-05-09T00:38:41.864Z,8.33
2024-05-09T00:41:12.544Z,8.40
2024-05-09T00:43:43.508Z,8.41
2024-05-09T00:46:16.609Z,8.47
2024-05-09T00:48:46.682Z,8.39
2024-05-09T00:51:17.052Z,8.34
2024-05-09T00:53:48.721Z,8.28
2024-05-09T00:56:19.818Z,8.12
2024-05-09T00:58:51.468Z,8.13
2024-05-09T01:01:25.289Z,8.14
2024-05-09T01:04:01.424Z,8.18
2024-05-09T01:06:36.259Z,8.12
2024-05-09T01:09:14.870Z,8.05
2024-05-09T01:11:47.970Z,8.05
2024-05-09T01:14:25.728Z,8.09
2024-05-09T01:16:59.660Z,7.96
2024-05-09T01:19:31.497Z,8.03
2024-05-09T01:22:03.094Z,7.87
2024-05-09T01:24:36.765Z,7.84
2024-05-09T01:27:09.643Z,7.91
2024-05-09T01:29:46.110Z,7.76
2024-05-09T01:32:16.228Z,7.87
2024-05-09T01:34:49.170Z,7.89
2024-05-09T01:37:21.587Z,7.81
2024-05-09T01:39:57.748Z,7.87
2024-05-09T01:42:27.990Z,7.77
2024-05-09T01:45:17.777Z,7.81
2024-05-09T01:48:00.487Z,7.86
2024-05-09T01:50:38.959Z,7.87
2024-05-09T01:53:15.276Z,7.84
2024-05-09T01:55:53.824Z,7.82
2024-05-09T01:58:28.416Z,7.82
2024-05-09T02:00:58.655Z,7.70
2024-05-09T02:03:30.964Z,7.67
2024-05-09T02:06:05.816Z,7.62
2024-05-09T02:08:40.905Z,7.58
2024-05-09T02:11:14.293Z,7.51
2024-05-09T02:13:44.644Z,7.49
2024-05-09T02:16:15.710Z,7.55
2024-05-09T02:18:47.309Z,7.52
2024-05-09T02:21:18.680Z,7.42
2024-05-09T02:23:49.928Z,7.37
2024-05-09T02:26:23.210Z,7.46
2024-05-09T02:28:53.660Z,7.39
2024-05-09T02:31:26.136Z,7.48
2024-05-09T02:33:58.632Z,7.37
2024-05-09T02:36:31.433Z,7.44
2024-05-09T02:39:00.278Z,7.37
2024-05-09T02:41:35.087Z,7.32
2024-05-09T02:44:03.450Z,7.33
2024-05-09T02:46:35.627Z,7.27
2024-05-09T02:49:04.181Z,7.17
2024-05-09T02:51:39.233Z,7.24
2024-05-09T02:54:09.993Z,7.16
2024-05-09T02:56:45.250Z,7.20
2024-05-09T02:59:14.660Z,7.13
2024-05-09T03:01:47.061Z,7.04
2024-05-09T03:04:17.584Z,7.04
2024-05-09T03:06:50.312Z,6.98
2024-05-09T03:09:27.563Z,6.99
2024-05-09T03:12:02.580Z,6.99
2024-05-09T03:14:36.696Z,6.77
2024-05-09T03:17:09.711Z,6.77
2024-05-09T03:19:39.509Z,6.73
2024-05-09T03:22:09.815Z,6.89
2024-05-09T03:24:38.018Z,6.87
2024-05-09T03:27:12.572Z,6.86
2024-05-09T03:29:40.556Z,6.91
2024-05-09T03:32:13.638Z,6.87
2024-05-09T03:34:40.863Z,6.91
2024-05-09T03:37:11.538Z,6.94
2024-05-09T03:39:42.362Z,7.03
2024-05-09T03:42:22.771Z,6.88
2024-05-09T03:44:56.620Z,6.70
2024-05-09T03:47:31.500Z,6.72
2024-05-09T03:50:05.848Z,6.91
2024-05-09T03:52:37.808Z,6.95
2024-05-09T03:55:07.255Z,6.94
2024-05-09T03:57:42.556Z,7.01
2024-05-09T04:00:39.466Z,7.03
2024-05-09T04:03:13.573Z,7.06
2024-05-09T04:05:46.388Z,7.21
2024-05-09T04:08:19.156Z,7.19
2024-05-09T04:10:50.823Z,7.35
2024-05-09T04:13:31.070Z,7.39
2024-05-09T04:16:12.756Z,7.39
2024-05-09T04:18:45.329Z,7.43
2024-05-09T04:21:13.933Z,7.45
2024-05-09T04:23:46.830Z,7.54
2024-05-09T04:26:16.124Z,7.56
2024-05-09T04:28:49.706Z,7.56
2024-05-09T04:31:16.917Z,7.56
2024-05-09T04:33:47.319Z,7.66
2024-05-09T04:36:16.826Z,7.72
2024-05-09T04:38:51.181Z,7.70
2024-05-09T04:41:18.680Z,7.72
2024-05-09T04:43:51.586Z,7.76
2024-05-09T04:46:36.276Z,7.89
2024-05-09T04:49:10.085Z,7.92
2024-05-09T04:51:39.799Z,7.93
2024-05-09T04:54:22.197Z,8.03
2024-05-09T04:56:58.580Z,8.09
2024-05-09T04:59:37.785Z,8.15
2024-05-09T05:02:08.136Z,8.23
2024-05-09T05:04:41.812Z,8.32
2024-05-09T05:07:13.255Z,8.39
2024-05-09T05:09:45.950Z,8.48
2024-05-09T05:12:28.459Z,8.52
2024-05-09T05:15:04.967Z,8.63
2024-05-09T05:17:38.181Z,8.77
2024-05-09T05:20:20.884Z,8.91
2024-05-09T05:22:59.483Z,8.99
2024-05-09T05:25:35.317Z,9.10
2024-05-09T05:28:06.853Z,9.26
2024-05-09T05:30:37.940Z,9.42
2024-05-09T05:33:10.575Z,9.50
2024-05-09T05:35:41.400Z,9.55
2024-05-09T05:38:17.003Z,9.82
2024-05-09T05:40:55.996Z,9.92
2024-05-09T05:43:33.869Z,10.14
2024-05-09T05:46:04.265Z,10.24
2024-05-09T05:48:36.927Z,10.41
2024-05-09T05:51:09.901Z,10.57
2024-05-09T05:53:52.447Z,10.71
2024-05-09T05:56:23.323Z,10.80
2024-05-09T05:58:55.303Z,10.94
2024-05-09T06:01:32.017Z,11.10
2024-05-09T06:04:10.870Z,11.17
2024-05-09T06:06:40.983Z,11.20
2024-05-09T06:09:10.764Z,11.28
2024-05-09T06:11:40.533Z,11.31
2024-05-09T06:14:13.944Z,11.42
2024-05-09T06:16:50.668Z,11.59
2024-05-09T06:19:22.967Z,11.70
2024-05-09T06:21:55.163Z,11.76
2024-05-09T06:24:28.497Z,11.95
2024-05-09T06:27:00.361Z,12.08
2024-05-09T06:29:35.371Z,12.24
2024-05-09T06:32:08.115Z,12.36
2024-05-09T06:34:42.715Z,12.43
2024-05-09T06:37:11.473Z,12.50
2024-05-09T06:39:41.262Z,12.70
2024-05-09T06:42:12.220Z,12.81
2024-05-09T06:44:56.184Z,13.00
2024-05-09T06:47:37.711Z,13.12
2024-05-09T06:50:27.919Z,13.21
2024-05-09T06:53:03.736Z,13.31
2024-05-09T06:55:36.408Z,13.40
2024-05-09T06:58:13.090Z,13.50
2024-05-09T07:00:54.838Z,13.63
2024-05-09T07:03:25.970Z,13.68
2024-05-09T07:06:03.974Z,13.84
2024-05-09T07:08:48.697Z,13.87
2024-05-09T07:11:53.384Z,13.96
2024-05-09T07:14:32.340Z,14.17
2024-05-09T07:17:12.290Z,14.26
2024-05-09T07:19:51.974Z,14.32
2024-05-09T07:22:23.066Z,14.43
2024-05-09T07:24:50.256Z,14.61
2024-05-09T07:27:20.923Z,14.70
2024-05-09T07:29:48.204Z,14.89
2024-05-09T07:32:34.085Z,14.87
2024-05-09T07:35:12.802Z,14.86
2024-05-09T07:37:50.173Z,14.96
2024-05-09T07:40:36.182Z,14.97
2024-05-09T07:43:12.556Z,14.93
2024-05-09T07:45:53.658Z,15.11
2024-05-09T07:50:34.426Z,15.20
2024-05-09T07:53:20.358Z,15.45
2024-05-09T07:54:43.805Z,15.43
2024-05-09T07:57:27.458Z,15.51
2024-05-09T07:59:59.583Z,15.67
2024-05-09T08:02:27.615Z,15.79
2024-05-09T08:05:05.989Z,15.74
2024-05-09T08:07:51.155Z,15.97
2024-05-09T08:10:44.945Z,16.02
2024-05-09T08:13:12.843Z,16.10
2024-05-09T08:15:44.319Z,15.85
2024-05-09T08:18:12.506Z,15.81
2024-05-09T08:20:55.027Z,16.11
2024-05-09T08:23:24.902Z,16.06
2024-05-09T08:25:55.762Z,16.35
2024-05-09T08:28:23.059Z,16.27
2024-05-09T08:30:53.332Z,16.38
2024-05-09T08:33:20.902Z,16.66
2024-05-09T08:35:51.258Z,16.85
2024-05-09T08:38:18.843Z,16.82
2024-05-09T08:40:51.706Z,16.96
2024-05-09T08:43:20.540Z,17.30
2024-05-09T08:45:52.394Z,17.19
2024-05-09T08:48:20.205Z,17.40
2024-05-09T08:50:50.614Z,17.25
2024-05-09T08:53:18.032Z,17.47
2024-05-09T08:55:52.236Z,17.29
2024-05-09T08:58:20.252Z,17.45
2024-05-09T09:00:50.735Z,17.38
2024-05-09T09:03:19.449Z,17.78
2024-05-09T09:06:00.412Z,17.86
2024-05-09T09:08:30.071Z,17.72
2024-05-09T09:11:02.691Z,17.88
2024-05-09T09:13:31.340Z,17.88
2024-05-09T09:16:03.135Z,17.97
2024-05-09T09:18:31.483Z,17.96
2024-05-09T09:21:03.435Z,18.03
2024-05-09T09:23:34.337Z,18.27
2024-05-09T09:26:07.169Z,18.31
2024-05-09T09:28:38.094Z,18.39
2024-05-09T09:31:08.974Z,18.38
2024-05-09T09:33:57.875Z,18.38
2024-05-09T09:36:39.723Z,18.28
2024-05-09T09:39:17.182Z,18.47
2024-05-09T09:41:55.805Z,18.65
2024-05-09T09:44:39.687Z,18.45
2024-05-09T09:47:29.488Z,18.51
2024-05-09T09:50:16.876Z,18.80
2024-05-09T09:52:57.314Z,18.94
2024-05-09T09:55:33.223Z,19.22
2024-05-09T09:58:11.973Z,19.65
2024-05-09T10:00:48.237Z,19.12
2024-05-09T10:03:18.135Z,18.43
2024-05-09T10:05:47.280Z,18.90
2024-05-09T10:08:18.351Z,19.02
2024-05-09T10:10:50.765Z,20.21
2024-05-09T10:13:35.304Z,21.76
2024-05-09T10:16:10.789Z,21.94
2024-05-09T10:19:04.425Z,22.55
2024-05-09T10:21:34.195Z,23.23
2024-05-09T10:24:19.386Z,23.76
2024-05-09T10:26:56.169Z,23.42
2024-05-09T10:29:29.991Z,23.59
2024-05-09T10:32:00.127Z,24.62
2024-05-09T10:34:51.534Z,25.99
2024-05-09T10:37:20.982Z,26.33
2024-05-09T10:39:53.621Z,25.13
2024-05-09T10:42:23.024Z,26.88
2024-05-09T10:44:58.920Z,24.27
2024-05-09T10:47:32.527Z,22.49
2024-05-09T10:50:07.836Z,23.57
2024-05-09T10:52:38.758Z,25.79
2024-05-09T10:55:09.375Z,25.02
2024-05-09T10:57:43.869Z,24.37
2024-05-09T11:00:27.848Z,22.60
2024-05-09T11:03:04.512Z,24.18
2024-05-09T11:05:50.760Z,23.04
2024-05-09T11:08:22.448Z,23.15
2024-05-09T11:10:53.538Z,22.18
2024-05-09T11:13:32.074Z,21.47
2024-05-09T11:16:04.719Z,22.64
2024-05-09T11:18:38.350Z,25.31
2024-05-09T11:21:13.219Z,26.44
2024-05-09T11:23:43.455Z,25.81
2024-05-09T11:26:11.313Z,26.36
2024-05-09T11:28:43.573Z,27.04
2024-05-09T11:31:13.472Z,26.21
2024-05-09T11:33:45.823Z,24.19
2024-05-09T11:36:13.261Z,24.76
2024-05-09T11:38:44.330Z,26.04
2024-05-09T11:41:17.320Z,26.89
2024-05-09T11:43:47.003Z,26.59
2024-05-09T11:46:17.020Z,26.07
2024-05-09T11:48:46.850Z,26.26
2024-05-09T11:51:14.014Z,25.11
2024-05-09T11:53:43.591Z,26.56
2024-05-09T11:56:19.773Z,26.47
2024-05-09T11:58:50.905Z,25.98
2024-05-09T12:01:25.294Z,26.07
2024-05-09T12:04:00.027Z,27.12
2024-05-09T12:06:29.531Z,24.69
2024-05-09T12:09:00.446Z,24.47
2024-05-09T12:11:28.248Z,23.74
2024-05-09T12:13:59.755Z,24.19
2024-05-09T12:16:31.390Z,25.12
2024-05-09T12:22:03.492Z,24.76
2024-05-09T12:24:30.869Z,23.85
2024-05-09T12:27:00.494Z,24.86
2024-05-09T12:38:21.048Z,22.88
2024-05-09T13:05:32.406Z,25.90
2024-05-09T13:08:00.819Z,25.97
2024-05-09T13:10:33.583Z,25.85
2024-05-09T13:13:03.946Z,24.82
2024-05-09T13:15:39.842Z,23.70
2024-05-09T13:18:09.292Z,22.39
2024-05-09T13:20:43.683Z,22.19
2024-05-09T13:23:14.283Z,24.30
2024-05-09T13:25:43.867Z,25.87
2024-05-09T13:28:10.867Z,26.83
2024-05-09T13:30:42.119Z,27.70
2024-05-09T13:33:10.653Z,27.72
2024-05-09T13:35:47.676Z,25.71
2024-05-09T13:38:17.714Z,26.74
2024-05-09T13:40:47.807Z,27.56
2024-05-09T13:43:15.270Z,25.32
2024-05-09T13:45:45.215Z,26.21
2024-05-09T13:48:12.760Z,26.21
2024-05-09T13:50:45.184Z,26.76
2024-05-09T13:53:12.085Z,26.58
2024-05-09T13:55:41.849Z,26.28
2024-05-09T13:58:10.051Z,27.11
2024-05-09T14:00:46.631Z,26.79
2024-05-09T14:03:17.634Z,26.47
2024-05-09T14:05:52.580Z,26.08
2024-05-09T14:08:21.466Z,25.29
2024-05-09T14:10:52.264Z,23.45
2024-05-09T14:13:19.930Z,24.43
2024-05-09T14:15:49.843Z,23.23
2024-05-09T14:18:17.318Z,24.54
2024-05-09T14:20:46.973Z,23.87
2024-05-09T14:23:17.896Z,24.72
2024-05-09T14:25:51.204Z,22.71
2024-05-09T14:28:19.688Z,23.91
2024-05-09T14:30:49.503Z,23.87
2024-05-09T14:33:22.279Z,24.06
2024-05-09T14:35:52.032Z,24.33
2024-05-09T14:38:21.684Z,22.82
2024-05-09T14:40:51.468Z,21.85
2024-05-09T14:43:18.765Z,22.35
2024-05-09T14:45:49.004Z,22.39
2024-05-09T14:48:16.222Z,22.32
2024-05-09T14:50:45.884Z,22.03
2024-05-09T14:53:13.741Z,21.42
2024-05-09T14:55:46.399Z,21.86
2024-05-09T14:58:13.753Z,22.09
2024-05-09T15:00:48.209Z,22.24
2024-05-09T15:03:18.609Z,22.50
2024-05-09T15:05:49.325Z,21.86
2024-05-09T15:08:17.345Z,22.15
2024-05-09T15:10:50.655Z,22.09
2024-05-09T15:13:18.139Z,22.24
2024-05-09T15:15:48.296Z,21.22
2024-05-09T15:18:15.981Z,21.21
2024-05-09T15:20:46.135Z,19.92
2024-05-09T15:23:13.321Z,19.85
2024-05-09T15:25:44.676Z,19.75
2024-05-09T15:28:14.527Z,19.81
2024-05-09T15:30:46.521Z,19.85
2024-05-09T15:34:24.831Z,19.66
2024-05-09T15:37:18.148Z,20.47
2024-05-09T15:40:18.291Z,20.30
2024-05-09T15:46:30.016Z,21.17
2024-05-09T15:49:01.012Z,20.82
2024-05-09T15:51:28.308Z,21.66
2024-05-09T15:53:57.857Z,21.85
2024-05-09T15:56:24.968Z,21.58
2024-05-09T15:58:57.152Z,21.66
2024-05-09T16:01:24.260Z,21.68
2024-05-09T16:04:04.416Z,21.95
2024-05-09T16:06:33.681Z,22.14
2024-05-09T16:09:03.344Z,21.44
2024-05-09T16:11:30.346Z,21.78
2024-05-09T16:14:02.552Z,21.60
2024-05-09T16:16:29.653Z,21.57
2024-05-09T16:18:59.372Z,20.95
2024-05-09T16:21:26.582Z,20.71
2024-05-09T16:23:56.130Z,20.93
2024-05-09T16:26:23.087Z,20.53
2024-05-09T16:28:52.740Z,20.43
2024-05-09T16:31:22.424Z,20.44
2024-05-09T16:33:52.247Z,20.43
2024-05-09T16:36:19.371Z,20.26
2024-05-09T16:38:48.894Z,19.97
2024-05-09T16:41:15.949Z,19.94
2024-05-09T16:43:45.751Z,19.46
2024-05-09T16:46:12.700Z,19.55
2024-05-09T16:48:45.783Z,18.92
2024-05-09T16:51:13.089Z,18.75
2024-05-09T16:53:43.131Z,18.51
2024-05-09T16:56:10.206Z,18.38
2024-05-09T16:58:39.827Z,18.04
2024-05-09T17:01:06.959Z,17.99
2024-05-09T17:03:36.784Z,17.98
2024-05-09T17:06:06.630Z,18.28
2024-05-09T17:08:37.629Z,18.15
2024-05-09T17:11:05.154Z,17.78
2024-05-09T17:13:39.216Z,17.57
2024-05-09T17:16:10.798Z,17.57
2024-05-09T17:18:40.477Z,17.37
2024-05-09T17:21:10.101Z,17.29
2024-05-09T17:23:39.709Z,17.20
2024-05-09T17:55:44.540Z,15.82
2024-05-09T18:48:41.859Z,14.32
2024-05-09T18:51:08.937Z,14.45
2024-05-09T18:53:38.485Z,14.59
2024-05-09T18:56:08.558Z,14.70
2024-05-09T18:59:42.647Z,14.79
2024-05-09T19:14:11.809Z,14.35
2024-05-09T19:16:52.464Z,14.30
2024-05-09T19:19:33.366Z,14.36
2024-05-09T19:35:22.648Z,14.42
2024-05-09T19:38:46.275Z,14.46
2024-05-09T19:45:19.886Z,14.60
2024-05-09T19:47:58.614Z,14.64
2024-05-09T19:50:39.724Z,14.79
2024-05-09T19:53:15.251Z,14.78
2024-05-09T19:55:55.146Z,14.72
2024-05-09T19:59:25.851Z,14.73
2024-05-09T20:13:26.286Z,14.69
2024-05-09T20:15:54.911Z,14.69
2024-05-09T20:18:34.920Z,14.68
2024-05-09T20:24:37.425Z,14.70
2024-05-09T20:27:12.717Z,14.63
2024-05-09T20:29:41.766Z,14.67
2024-05-09T20:32:12.459Z,14.66
2024-05-09T20:37:57.831Z,14.78
2024-05-09T20:40:37.971Z,14.78
2024-05-09T20:43:19.527Z,14.82
2024-05-09T20:45:59.817Z,14.79
2024-05-09T20:48:38.932Z,14.71
2024-05-09T20:51:06.442Z,14.75
2024-05-09T20:53:38.394Z,14.70
2024-05-09T20:56:07.784Z,14.71
2024-05-09T20:58:42.059Z,14.71
2024-05-09T21:01:09.351Z,14.67
2024-05-09T21:03:41.398Z,14.65
2024-05-09T21:06:08.651Z,14.66
2024-05-09T21:08:38.658Z,14.72
2024-05-09T21:11:05.849Z,14.67
2024-05-09T21:13:35.762Z,14.70
2024-05-09T21:16:06.345Z,14.67
2024-05-09T21:18:38.259Z,14.70
2024-05-09T21:21:06.516Z,14.79
2024-05-09T21:23:37.649Z,14.80
2024-05-09T21:26:06.529Z,14.68
2024-05-09T21:28:39.655Z,14.66
2024-05-09T21:31:09.702Z,14.67
2024-05-09T21:33:40.259Z,14.62
2024-05-09T21:36:11.897Z,14.63
2024-05-09T21:38:42.388Z,14.52
2024-05-09T21:41:12.291Z,14.41
2024-05-09T21:43:39.771Z,14.50
2024-05-09T21:46:12.698Z,14.56
2024-05-09T21:48:40.571Z,14.51
2024-05-09T21:51:16.309Z,14.36
2024-05-09T21:53:44.313Z,14.26
2024-05-09T21:56:14.904Z,14.31
2024-05-09T21:58:42.413Z,14.30
2024-05-09T22:01:15.562Z,14.34
2024-05-09T22:03:43.316Z,14.31
2024-05-09T22:06:13.571Z,14.27
2024-05-09T22:08:41.026Z,14.33
2024-05-09T22:11:11.681Z,14.18
2024-05-09T22:13:39.215Z,14.11
2024-05-09T22:16:10.485Z,13.96
2024-05-09T22:18:40.684Z,14.06
2024-05-09T22:21:10.749Z,13.95
2024-05-09T22:23:38.257Z,14.04
2024-05-09T22:26:10.355Z,13.91
2024-05-09T22:28:38.497Z,13.93
2024-05-09T22:31:08.296Z,14.03
2024-05-09T22:33:35.597Z,13.94
2024-05-09T22:36:10.284Z,13.85
2024-05-09T22:38:37.450Z,13.97
2024-05-09T22:41:08.695Z,13.95
2024-05-09T22:43:36.057Z,13.92
2024-05-09T22:46:06.768Z,13.87
2024-05-09T22:48:35.544Z,13.80
2024-05-09T22:51:09.692Z,14.03
2024-05-09T22:53:37.166Z,14.17
2024-05-09T22:56:07.240Z,14.28
2024-05-09T22:58:34.787Z,14.04
2024-05-09T23:01:06.679Z,13.88
2024-05-09T23:03:34.732Z,13.77
2024-05-09T23:06:11.522Z,13.76
2024-05-09T23:08:38.694Z,13.97
2024-05-09T23:11:09.000Z,13.94
2024-05-09T23:13:36.831Z,13.91
2024-05-09T23:16:07.111Z,13.88
2024-05-09T23:18:35.098Z,13.79
2024-05-09T23:21:04.980Z,13.74
2024-05-09T23:23:34.811Z,13.79
2024-05-09T23:26:05.753Z,13.74
2024-05-09T23:28:34.016Z,13.81
2024-05-09T23:31:04.527Z,14.05
2024-05-09T23:33:31.986Z,13.80
2024-05-09T23:36:02.638Z,13.76
2024-05-09T23:38:30.214Z,13.93
2024-05-09T23:41:04.254Z,13.77
2024-05-09T23:43:31.524Z,13.67
2024-05-09T23:46:01.707Z,13.73
2024-05-09T23:48:30.314Z,13.69
2024-05-09T23:51:01.737Z,13.68
2024-05-09T23:53:29.100Z,13.66
2024-05-09T23:56:02.096Z,13.65
2024-05-09T23:58:29.884Z,13.69
